sensor_id;sensor_type;location;lat;lon;timestamp;temperature;humidity
10530;DHT22;5313;48.834;9.228;2022-09-09T00:00:24;15.70;99.90
10530;DHT22;5313;48.834;9.228;2022-09-09T00:05:31;15.70;99.90
10530;DHT22;5313;48.834;9.228;2022-09-09T00:08:02;15.70;99.90
10530;DHT22;5313;48.834;9.228;2022-09-09T00:10:39;15.80;99.90
10530;DHT22;5313;48.834;9.228;2022-09-09T00:13:33;15.90;99.90
10530;DHT22;5313;48.834;9.228;2022-09-09T00:16:07;15.90;99.90
10530;DHT22;5313;48.834;9.228;2022-09-09T00:21:13;16.00;99.90
10530;DHT22;5313;48.834;9.228;2022-09-09T00:23:51;16.00;99.90
10530;DHT22;5313;48.834;9.228;2022-09-09T00:28:52;16.00;99.90
10530;DHT22;5313;48.834;9.228;2022-09-09T00:31:27;16.00;99.90
10530;DHT22;5313;48.834;9.228;2022-09-09T00:33:55;16.00;99.90
10530;DHT22;5313;48.834;9.228;2022-09-09T00:36:24;16.10;99.90
10530;DHT22;5313;48.834;9.228;2022-09-09T00:38:57;16.00;99.90
10530;DHT22;5313;48.834;9.228;2022-09-09T00:44:34;16.00;99.90
10530;DHT22;5313;48.834;9.228;2022-09-09T00:50:00;16.10;99.90
10530;DHT22;5313;48.834;9.228;2022-09-09T00:55:34;16.30;99.90
10530;DHT22;5313;48.834;9.228;2022-09-09T00:58:07;16.30;99.90
10530;DHT22;5313;48.834;9.228;2022-09-09T01:00:41;16.40;99.90
10530;DHT22;5313;48.834;9.228;2022-09-09T01:03:25;16.40;99.90
10530;DHT22;5313;48.834;9.228;2022-09-09T01:08:59;16.40;99.90
10530;DHT22;5313;48.834;9.228;2022-09-09T01:12:01;16.30;99.90
10530;DHT22;5313;48.834;9.228;2022-09-09T01:17:18;16.20;99.90
10530;DHT22;5313;48.834;9.228;2022-09-09T01:19:47;16.20;99.90
10530;DHT22;5313;48.834;9.228;2022-09-09T01:22:40;16.10;99.90
10530;DHT22;5313;48.834;9.228;2022-09-09T01:28:17;16.40;99.90
10530;DHT22;5313;48.834;9.228;2022-09-09T01:30:43;16.40;99.90
10530;DHT22;5313;48.834;9.228;2022-09-09T01:33:17;16.40;99.90
10530;DHT22;5313;48.834;9.228;2022-09-09T01:35:54;16.30;99.90
10530;DHT22;5313;48.834;9.228;2022-09-09T01:38:21;16.30;99.90
10530;DHT22;5313;48.834;9.228;2022-09-09T01:40:47;16.30;99.90
10530;DHT22;5313;48.834;9.228;2022-09-09T01:43:13;16.30;99.90
10530;DHT22;5313;48.834;9.228;2022-09-09T01:45:41;16.40;99.90
10530;DHT22;5313;48.834;9.228;2022-09-09T01:48:07;16.40;99.90
10530;DHT22;5313;48.834;9.228;2022-09-09T01:50:33;16.40;99.90
10530;DHT22;5313;48.834;9.228;2022-09-09T01:53:00;16.40;99.90
10530;DHT22;5313;48.834;9.228;2022-09-09T01:55:30;16.40;99.90
10530;DHT22;5313;48.834;9.228;2022-09-09T02:03:52;16.40;99.90
10530;DHT22;5313;48.834;9.228;2022-09-09T02:06:37;16.40;99.90
10530;DHT22;5313;48.834;9.228;2022-09-09T02:09:05;16.40;99.90
10530;DHT22;5313;48.834;9.228;2022-09-09T02:11:33;16.30;99.90
10530;DHT22;5313;48.834;9.228;2022-09-09T02:19:16;16.10;99.90
10530;DHT22;5313;48.834;9.228;2022-09-09T02:21:44;16.10;99.90
10530;DHT22;5313;48.834;9.228;2022-09-09T02:24:13;16.00;99.90
10530;DHT22;5313;48.834;9.228;2022-09-09T02:26:42;16.00;99.90
10530;DHT22;5313;48.834;9.228;2022-09-09T02:29:14;16.00;99.90
10530;DHT22;5313;48.834;9.228;2022-09-09T02:31:42;16.00;99.90
10530;DHT22;5313;48.834;9.228;2022-09-09T02:34:10;16.00;99.90
10530;DHT22;5313;48.834;9.228;2022-09-09T02:36:38;16.10;99.90
10530;DHT22;5313;48.834;9.228;2022-09-09T02:39:07;16.00;99.90
10530;DHT22;5313;48.834;9.228;2022-09-09T02:41:35;16.00;99.90
10530;DHT22;5313;48.834;9.228;2022-09-09T02:44:01;16.00;99.90
10530;DHT22;5313;48.834;9.228;2022-09-09T02:49:18;15.80;99.90
10530;DHT22;5313;48.834;9.228;2022-09-09T02:52:13;15.70;99.90
10530;DHT22;5313;48.834;9.228;2022-09-09T02:54:41;15.60;99.90
10530;DHT22;5313;48.834;9.228;2022-09-09T02:57:24;15.50;99.90
10530;DHT22;5313;48.834;9.228;2022-09-09T02:59:51;15.40;99.90
10530;DHT22;5313;48.834;9.228;2022-09-09T03:02:18;15.50;99.90
10530;DHT22;5313;48.834;9.228;2022-09-09T03:04:44;15.50;99.90
10530;DHT22;5313;48.834;9.228;2022-09-09T03:07:13;15.60;99.90
10530;DHT22;5313;48.834;9.228;2022-09-09T03:09:38;15.60;99.90
10530;DHT22;5313;48.834;9.228;2022-09-09T03:12:04;15.70;99.90
10530;DHT22;5313;48.834;9.228;2022-09-09T03:14:30;15.70;99.90
10530;DHT22;5313;48.834;9.228;2022-09-09T03:16:56;15.70;99.90
10530;DHT22;5313;48.834;9.228;2022-09-09T03:19:23;15.70;99.90
10530;DHT22;5313;48.834;9.228;2022-09-09T03:21:49;15.80;99.90
10530;DHT22;5313;48.834;9.228;2022-09-09T03:24:15;15.80;99.90
10530;DHT22;5313;48.834;9.228;2022-09-09T03:26:41;15.80;99.90
10530;DHT22;5313;48.834;9.228;2022-09-09T03:29:10;15.90;99.90
10530;DHT22;5313;48.834;9.228;2022-09-09T03:31:38;15.80;99.90
10530;DHT22;5313;48.834;9.228;2022-09-09T03:34:03;15.80;99.90
10530;DHT22;5313;48.834;9.228;2022-09-09T03:36:29;15.80;99.90
10530;DHT22;5313;48.834;9.228;2022-09-09T03:38:55;15.80;99.90
10530;DHT22;5313;48.834;9.228;2022-09-09T03:41:22;15.70;99.90
10530;DHT22;5313;48.834;9.228;2022-09-09T03:43:50;15.80;99.90
10530;DHT22;5313;48.834;9.228;2022-09-09T03:46:18;15.80;99.90
10530;DHT22;5313;48.834;9.228;2022-09-09T03:48:43;15.80;99.90
10530;DHT22;5313;48.834;9.228;2022-09-09T03:51:09;15.80;99.90
10530;DHT22;5313;48.834;9.228;2022-09-09T03:53:35;15.70;99.90
10530;DHT22;5313;48.834;9.228;2022-09-09T03:56:04;15.70;99.90
10530;DHT22;5313;48.834;9.228;2022-09-09T03:58:32;15.60;99.90
10530;DHT22;5313;48.834;9.228;2022-09-09T04:01:01;15.60;99.90
10530;DHT22;5313;48.834;9.228;2022-09-09T04:03:28;15.60;99.90
10530;DHT22;5313;48.834;9.228;2022-09-09T04:05:55;15.60;99.90
10530;DHT22;5313;48.834;9.228;2022-09-09T04:08:21;15.50;99.90
10530;DHT22;5313;48.834;9.228;2022-09-09T04:10:48;15.20;99.90
10530;DHT22;5313;48.834;9.228;2022-09-09T04:13:14;15.20;99.90
10530;DHT22;5313;48.834;9.228;2022-09-09T04:15:41;15.20;99.90
10530;DHT22;5313;48.834;9.228;2022-09-09T04:18:07;15.30;99.90
10530;DHT22;5313;48.834;9.228;2022-09-09T04:20:33;15.40;99.90
10530;DHT22;5313;48.834;9.228;2022-09-09T04:22:59;15.50;99.90
10530;DHT22;5313;48.834;9.228;2022-09-09T04:25:24;15.60;99.90
10530;DHT22;5313;48.834;9.228;2022-09-09T04:27:54;15.60;99.90
10530;DHT22;5313;48.834;9.228;2022-09-09T04:30:20;15.60;99.90
10530;DHT22;5313;48.834;9.228;2022-09-09T04:32:46;15.50;99.90
10530;DHT22;5313;48.834;9.228;2022-09-09T04:35:12;15.50;99.90
10530;DHT22;5313;48.834;9.228;2022-09-09T04:37:37;15.50;99.90
10530;DHT22;5313;48.834;9.228;2022-09-09T04:40:03;15.40;99.90
10530;DHT22;5313;48.834;9.228;2022-09-09T04:42:29;15.40;99.90
10530;DHT22;5313;48.834;9.228;2022-09-09T04:44:54;15.50;99.90
10530;DHT22;5313;48.834;9.228;2022-09-09T04:47:20;15.40;99.90
10530;DHT22;5313;48.834;9.228;2022-09-09T04:49:45;15.40;99.90
10530;DHT22;5313;48.834;9.228;2022-09-09T04:52:11;15.40;99.90
10530;DHT22;5313;48.834;9.228;2022-09-09T04:54:36;15.40;99.90
10530;DHT22;5313;48.834;9.228;2022-09-09T04:57:02;15.40;99.90
10530;DHT22;5313;48.834;9.228;2022-09-09T04:59:28;15.40;99.90
10530;DHT22;5313;48.834;9.228;2022-09-09T05:01:53;15.40;99.90
10530;DHT22;5313;48.834;9.228;2022-09-09T05:04:21;15.50;99.90
10530;DHT22;5313;48.834;9.228;2022-09-09T05:06:46;15.40;99.90
10530;DHT22;5313;48.834;9.228;2022-09-09T05:09:12;15.30;99.90
10530;DHT22;5313;48.834;9.228;2022-09-09T05:11:37;15.40;99.90
10530;DHT22;5313;48.834;9.228;2022-09-09T05:14:04;15.40;99.90
10530;DHT22;5313;48.834;9.228;2022-09-09T05:16:29;15.40;99.90
10530;DHT22;5313;48.834;9.228;2022-09-09T05:18:55;15.50;99.90
10530;DHT22;5313;48.834;9.228;2022-09-09T05:21:22;15.40;99.90
10530;DHT22;5313;48.834;9.228;2022-09-09T05:23:49;15.40;99.90
10530;DHT22;5313;48.834;9.228;2022-09-09T05:26:21;15.40;99.90
10530;DHT22;5313;48.834;9.228;2022-09-09T05:28:47;15.30;99.90
10530;DHT22;5313;48.834;9.228;2022-09-09T05:31:14;15.40;99.90
10530;DHT22;5313;48.834;9.228;2022-09-09T05:33:41;15.40;99.90
10530;DHT22;5313;48.834;9.228;2022-09-09T05:36:10;15.50;99.90
10530;DHT22;5313;48.834;9.228;2022-09-09T05:38:38;15.50;99.90
10530;DHT22;5313;48.834;9.228;2022-09-09T05:41:05;15.50;99.90
10530;DHT22;5313;48.834;9.228;2022-09-09T05:43:31;15.50;99.90
10530;DHT22;5313;48.834;9.228;2022-09-09T05:46:08;15.60;99.90
10530;DHT22;5313;48.834;9.228;2022-09-09T05:48:36;15.70;99.90
10530;DHT22;5313;48.834;9.228;2022-09-09T05:51:04;15.80;99.90
10530;DHT22;5313;48.834;9.228;2022-09-09T05:53:32;15.90;99.90
10530;DHT22;5313;48.834;9.228;2022-09-09T05:56:10;18.10;99.90
10530;DHT22;5313;48.834;9.228;2022-09-09T05:58:36;16.00;99.90
10530;DHT22;5313;48.834;9.228;2022-09-09T06:01:16;16.10;99.90
10530;DHT22;5313;48.834;9.228;2022-09-09T06:03:44;16.10;99.90
10530;DHT22;5313;48.834;9.228;2022-09-09T06:06:12;16.20;99.90
10530;DHT22;5313;48.834;9.228;2022-09-09T06:08:39;16.30;99.90
10530;DHT22;5313;48.834;9.228;2022-09-09T06:11:32;16.40;99.90
10530;DHT22;5313;48.834;9.228;2022-09-09T06:13:58;16.40;99.90
10530;DHT22;5313;48.834;9.228;2022-09-09T06:16:26;16.40;99.90
10530;DHT22;5313;48.834;9.228;2022-09-09T06:18:53;16.50;99.90
10530;DHT22;5313;48.834;9.228;2022-09-09T06:21:27;16.50;99.90
10530;DHT22;5313;48.834;9.228;2022-09-09T06:23:53;16.60;99.90
10530;DHT22;5313;48.834;9.228;2022-09-09T06:26:21;16.60;99.90
10530;DHT22;5313;48.834;9.228;2022-09-09T06:28:49;16.60;99.90
10530;DHT22;5313;48.834;9.228;2022-09-09T06:31:17;16.70;99.90
10530;DHT22;5313;48.834;9.228;2022-09-09T06:33:43;16.80;99.90
10530;DHT22;5313;48.834;9.228;2022-09-09T06:36:14;16.80;99.90
10530;DHT22;5313;48.834;9.228;2022-09-09T06:38:41;16.80;99.90
10530;DHT22;5313;48.834;9.228;2022-09-09T06:41:08;16.80;99.90
10530;DHT22;5313;48.834;9.228;2022-09-09T06:43:34;16.90;99.90
10530;DHT22;5313;48.834;9.228;2022-09-09T06:46:12;16.90;99.90
10530;DHT22;5313;48.834;9.228;2022-09-09T06:48:42;17.00;99.90
10530;DHT22;5313;48.834;9.228;2022-09-09T06:53:37;17.00;99.90
10530;DHT22;5313;48.834;9.228;2022-09-09T06:56:18;17.10;99.90
10530;DHT22;5313;48.834;9.228;2022-09-09T06:58:46;17.20;99.90
10530;DHT22;5313;48.834;9.228;2022-09-09T07:01:13;17.30;99.90
10530;DHT22;5313;48.834;9.228;2022-09-09T07:03:40;17.30;99.90
10530;DHT22;5313;48.834;9.228;2022-09-09T07:06:07;17.40;99.90
10530;DHT22;5313;48.834;9.228;2022-09-09T07:08:33;17.40;99.90
10530;DHT22;5313;48.834;9.228;2022-09-09T07:11:07;17.50;99.90
10530;DHT22;5313;48.834;9.228;2022-09-09T07:13:33;17.60;99.90
10530;DHT22;5313;48.834;9.228;2022-09-09T07:16:10;17.60;99.90
10530;DHT22;5313;48.834;9.228;2022-09-09T07:18:36;17.60;99.90
10530;DHT22;5313;48.834;9.228;2022-09-09T07:21:03;17.70;99.90
10530;DHT22;5313;48.834;9.228;2022-09-09T07:23:29;17.70;99.90
10530;DHT22;5313;48.834;9.228;2022-09-09T07:25:56;17.90;99.90
10530;DHT22;5313;48.834;9.228;2022-09-09T07:28:21;18.00;99.90
10530;DHT22;5313;48.834;9.228;2022-09-09T07:30:58;18.00;99.90
10530;DHT22;5313;48.834;9.228;2022-09-09T07:33:25;18.20;99.90
10530;DHT22;5313;48.834;9.228;2022-09-09T07:35:51;18.40;99.90
10530;DHT22;5313;48.834;9.228;2022-09-09T07:38:18;18.70;99.90
10530;DHT22;5313;48.834;9.228;2022-09-09T07:40:44;19.00;99.90
10530;DHT22;5313;48.834;9.228;2022-09-09T07:43:09;19.00;99.90
10530;DHT22;5313;48.834;9.228;2022-09-09T07:45:36;19.40;99.90
10530;DHT22;5313;48.834;9.228;2022-09-09T07:48:02;19.40;99.90
10530;DHT22;5313;48.834;9.228;2022-09-09T07:50:28;19.40;99.90
10530;DHT22;5313;48.834;9.228;2022-09-09T07:52:54;19.90;99.90
10530;DHT22;5313;48.834;9.228;2022-09-09T07:55:21;19.50;99.90
10530;DHT22;5313;48.834;9.228;2022-09-09T07:57:47;19.90;99.90
10530;DHT22;5313;48.834;9.228;2022-09-09T08:00:13;19.80;99.90
10530;DHT22;5313;48.834;9.228;2022-09-09T08:02:40;19.60;99.90
10530;DHT22;5313;48.834;9.228;2022-09-09T08:05:06;19.70;99.90
10530;DHT22;5313;48.834;9.228;2022-09-09T08:07:31;19.50;99.90
10530;DHT22;5313;48.834;9.228;2022-09-09T08:09:57;19.80;99.90
10530;DHT22;5313;48.834;9.228;2022-09-09T08:12:23;19.80;99.90
10530;DHT22;5313;48.834;9.228;2022-09-09T08:14:48;19.90;99.90
10530;DHT22;5313;48.834;9.228;2022-09-09T08:17:14;19.80;99.90
10530;DHT22;5313;48.834;9.228;2022-09-09T08:19:40;19.70;99.90
10530;DHT22;5313;48.834;9.228;2022-09-09T08:22:05;20.20;99.90
10530;DHT22;5313;48.834;9.228;2022-09-09T08:24:31;20.00;99.90
10530;DHT22;5313;48.834;9.228;2022-09-09T08:26:56;19.90;99.90
10530;DHT22;5313;48.834;9.228;2022-09-09T08:29:22;20.50;99.90
10530;DHT22;5313;48.834;9.228;2022-09-09T08:31:53;20.40;99.90
10530;DHT22;5313;48.834;9.228;2022-09-09T08:34:23;20.10;99.90
10530;DHT22;5313;48.834;9.228;2022-09-09T08:36:50;20.20;99.90
10530;DHT22;5313;48.834;9.228;2022-09-09T08:39:18;20.30;99.90
10530;DHT22;5313;48.834;9.228;2022-09-09T08:44:48;20.80;99.90
10530;DHT22;5313;48.834;9.228;2022-09-09T08:47:41;20.90;99.90
10530;DHT22;5313;48.834;9.228;2022-09-09T08:50:30;20.90;99.90
10530;DHT22;5313;48.834;9.228;2022-09-09T08:53:13;21.00;99.90
10530;DHT22;5313;48.834;9.228;2022-09-09T08:56:01;21.10;99.90
10530;DHT22;5313;48.834;9.228;2022-09-09T08:58:30;21.50;99.90
10530;DHT22;5313;48.834;9.228;2022-09-09T09:09:18;22.30;99.90
10530;DHT22;5313;48.834;9.228;2022-09-09T09:12:00;22.50;99.90
10530;DHT22;5313;48.834;9.228;2022-09-09T09:14:29;22.60;99.90
10530;DHT22;5313;48.834;9.228;2022-09-09T09:17:00;22.70;99.90
10530;DHT22;5313;48.834;9.228;2022-09-09T09:19:28;22.70;99.90
10530;DHT22;5313;48.834;9.228;2022-09-09T09:22:23;22.30;99.90
10530;DHT22;5313;48.834;9.228;2022-09-09T09:28:20;21.70;99.90
10530;DHT22;5313;48.834;9.228;2022-09-09T09:30:59;21.50;99.90
10530;DHT22;5313;48.834;9.228;2022-09-09T09:36:01;20.90;99.90
10530;DHT22;5313;48.834;9.228;2022-09-09T09:38:29;20.90;99.90
10530;DHT22;5313;48.834;9.228;2022-09-09T09:40:56;20.70;99.90
10530;DHT22;5313;48.834;9.228;2022-09-09T09:43:28;20.60;99.90
10530;DHT22;5313;48.834;9.228;2022-09-09T09:45:54;20.40;99.90
10530;DHT22;5313;48.834;9.228;2022-09-09T09:48:20;20.40;99.90
10530;DHT22;5313;48.834;9.228;2022-09-09T09:50:49;20.30;99.90
10530;DHT22;5313;48.834;9.228;2022-09-09T09:56:05;20.20;99.90
10530;DHT22;5313;48.834;9.228;2022-09-09T09:58:36;20.80;99.90
10530;DHT22;5313;48.834;9.228;2022-09-09T10:01:03;19.50;99.90
10530;DHT22;5313;48.834;9.228;2022-09-09T10:03:30;20.70;99.90
10530;DHT22;5313;48.834;9.228;2022-09-09T10:05:56;22.00;99.90
10530;DHT22;5313;48.834;9.228;2022-09-09T10:08:24;22.10;99.90
10530;DHT22;5313;48.834;9.228;2022-09-09T10:18:58;23.10;99.90
10530;DHT22;5313;48.834;9.228;2022-09-09T10:30:22;23.10;99.90
10530;DHT22;5313;48.834;9.228;2022-09-09T10:33:05;23.10;99.90
10530;DHT22;5313;48.834;9.228;2022-09-09T10:35:51;23.30;99.90
10530;DHT22;5313;48.834;9.228;2022-09-09T10:38:26;23.80;99.90
10530;DHT22;5313;48.834;9.228;2022-09-09T10:57:45;22.60;99.90
10530;DHT22;5313;48.834;9.228;2022-09-09T11:00:24;22.40;99.90
10530;DHT22;5313;48.834;9.228;2022-09-09T11:03:02;23.10;99.90
10530;DHT22;5313;48.834;9.228;2022-09-09T11:05:41;23.20;99.90
10530;DHT22;5313;48.834;9.228;2022-09-09T11:08:19;23.10;99.90
10530;DHT22;5313;48.834;9.228;2022-09-09T11:10:53;23.50;99.90
10530;DHT22;5313;48.834;9.228;2022-09-09T11:18:44;22.90;99.90
10530;DHT22;5313;48.834;9.228;2022-09-09T11:21:18;22.70;99.90
10530;DHT22;5313;48.834;9.228;2022-09-09T11:24:33;22.10;99.90
10530;DHT22;5313;48.834;9.228;2022-09-09T11:26:44;21.20;99.90
10530;DHT22;5313;48.834;9.228;2022-09-09T11:32:06;19.50;99.90
10530;DHT22;5313;48.834;9.228;2022-09-09T11:37:27;19.40;99.90
10530;DHT22;5313;48.834;9.228;2022-09-09T11:42:35;19.80;99.90
10530;DHT22;5313;48.834;9.228;2022-09-09T11:45:23;20.10;99.90
10530;DHT22;5313;48.834;9.228;2022-09-09T11:47:57;20.20;99.90
10530;DHT22;5313;48.834;9.228;2022-09-09T11:52:50;20.10;99.90
10530;DHT22;5313;48.834;9.228;2022-09-09T11:55:33;20.10;99.90
10530;DHT22;5313;48.834;9.228;2022-09-09T11:58:04;20.00;99.90
10530;DHT22;5313;48.834;9.228;2022-09-09T12:00:37;19.90;99.90
10530;DHT22;5313;48.834;9.228;2022-09-09T12:06:31;20.20;99.90
10530;DHT22;5313;48.834;9.228;2022-09-09T12:09:51;20.30;99.90
10530;DHT22;5313;48.834;9.228;2022-09-09T12:11:51;20.60;99.90
10530;DHT22;5313;48.834;9.228;2022-09-09T12:19:41;21.90;99.90
10530;DHT22;5313;48.834;9.228;2022-09-09T12:22:16;22.30;99.90
10530;DHT22;5313;48.834;9.228;2022-09-09T12:25:35;22.20;99.90
10530;DHT22;5313;48.834;9.228;2022-09-09T12:28:00;22.40;99.90
10530;DHT22;5313;48.834;9.228;2022-09-09T12:31:00;22.30;99.90
10530;DHT22;5313;48.834;9.228;2022-09-09T12:33:39;23.20;99.90
10530;DHT22;5313;48.834;9.228;2022-09-09T12:36:13;24.00;99.90
10530;DHT22;5313;48.834;9.228;2022-09-09T12:38:41;23.50;99.90
10530;DHT22;5313;48.834;9.228;2022-09-09T12:43:46;23.40;99.90
10530;DHT22;5313;48.834;9.228;2022-09-09T12:49:32;23.80;97.50
10530;DHT22;5313;48.834;9.228;2022-09-09T12:52:06;22.90;98.60
10530;DHT22;5313;48.834;9.228;2022-09-09T12:54:35;22.40;99.50
10530;DHT22;5313;48.834;9.228;2022-09-09T12:57:01;22.30;99.80
10530;DHT22;5313;48.834;9.228;2022-09-09T12:59:36;22.20;99.90
10530;DHT22;5313;48.834;9.228;2022-09-09T13:02:02;22.40;99.90
10530;DHT22;5313;48.834;9.228;2022-09-09T13:04:27;23.00;99.90
10530;DHT22;5313;48.834;9.228;2022-09-09T13:06:53;24.00;98.80
10530;DHT22;5313;48.834;9.228;2022-09-09T13:09:19;24.60;96.90
10530;DHT22;5313;48.834;9.228;2022-09-09T13:11:51;25.20;96.10
10530;DHT22;5313;48.834;9.228;2022-09-09T13:14:23;25.70;93.70
10530;DHT22;5313;48.834;9.228;2022-09-09T13:16:57;25.20;93.50
10530;DHT22;5313;48.834;9.228;2022-09-09T13:19:23;24.50;95.50
10530;DHT22;5313;48.834;9.228;2022-09-09T13:21:53;24.20;95.20
10530;DHT22;5313;48.834;9.228;2022-09-09T13:24:31;23.90;96.40
10530;DHT22;5313;48.834;9.228;2022-09-09T13:26:59;23.60;97.60
10530;DHT22;5313;48.834;9.228;2022-09-09T13:29:27;23.50;97.70
10530;DHT22;5313;48.834;9.228;2022-09-09T13:31:53;23.40;98.30
10530;DHT22;5313;48.834;9.228;2022-09-09T13:34:32;23.40;98.80
10530;DHT22;5313;48.834;9.228;2022-09-09T13:37:05;23.30;98.00
10530;DHT22;5313;48.834;9.228;2022-09-09T13:39:36;23.80;99.20
10530;DHT22;5313;48.834;9.228;2022-09-09T13:42:02;24.80;97.30
10530;DHT22;5313;48.834;9.228;2022-09-09T13:44:31;25.30;96.00
10530;DHT22;5313;48.834;9.228;2022-09-09T13:47:05;25.60;94.50
10530;DHT22;5313;48.834;9.228;2022-09-09T13:49:32;25.80;94.00
10530;DHT22;5313;48.834;9.228;2022-09-09T13:52:28;26.00;93.00
10530;DHT22;5313;48.834;9.228;2022-09-09T13:54:56;25.90;93.00
10530;DHT22;5313;48.834;9.228;2022-09-09T13:57:24;25.40;92.90
10530;DHT22;5313;48.834;9.228;2022-09-09T13:59:51;24.70;94.50
10530;DHT22;5313;48.834;9.228;2022-09-09T14:02:17;24.10;97.40
10530;DHT22;5313;48.834;9.228;2022-09-09T14:04:44;24.10;97.00
10530;DHT22;5313;48.834;9.228;2022-09-09T14:07:18;24.20;96.50
10530;DHT22;5313;48.834;9.228;2022-09-09T14:09:44;24.50;95.40
10530;DHT22;5313;48.834;9.228;2022-09-09T14:12:11;24.70;95.50
10530;DHT22;5313;48.834;9.228;2022-09-09T14:14:37;24.70;94.70
10530;DHT22;5313;48.834;9.228;2022-09-09T14:17:03;25.10;93.30
10530;DHT22;5313;48.834;9.228;2022-09-09T14:19:29;24.60;92.20
10530;DHT22;5313;48.834;9.228;2022-09-09T14:21:56;24.30;93.50
10530;DHT22;5313;48.834;9.228;2022-09-09T14:24:22;24.90;92.00
10530;DHT22;5313;48.834;9.228;2022-09-09T14:26:47;25.30;90.40
10530;DHT22;5313;48.834;9.228;2022-09-09T14:29:13;24.90;90.30
10530;DHT22;5313;48.834;9.228;2022-09-09T14:31:38;25.30;89.30
10530;DHT22;5313;48.834;9.228;2022-09-09T14:34:04;25.50;87.20
10530;DHT22;5313;48.834;9.228;2022-09-09T14:36:29;25.90;85.50
10530;DHT22;5313;48.834;9.228;2022-09-09T14:38:55;26.10;82.90
10530;DHT22;5313;48.834;9.228;2022-09-09T14:41:21;26.00;82.00
10530;DHT22;5313;48.834;9.228;2022-09-09T14:43:48;25.60;80.60
10530;DHT22;5313;48.834;9.228;2022-09-09T14:46:15;25.40;81.60
10530;DHT22;5313;48.834;9.228;2022-09-09T14:48:41;24.70;81.50
10530;DHT22;5313;48.834;9.228;2022-09-09T14:51:11;24.10;85.10
10530;DHT22;5313;48.834;9.228;2022-09-09T14:53:39;23.90;87.20
10530;DHT22;5313;48.834;9.228;2022-09-09T14:56:10;24.10;87.50
10530;DHT22;5313;48.834;9.228;2022-09-09T14:58:37;24.40;86.10
10530;DHT22;5313;48.834;9.228;2022-09-09T15:01:05;24.90;85.30
10530;DHT22;5313;48.834;9.228;2022-09-09T15:03:30;24.80;82.70
10530;DHT22;5313;48.834;9.228;2022-09-09T15:05:56;24.60;85.60
10530;DHT22;5313;48.834;9.228;2022-09-09T15:08:24;24.40;84.70
10530;DHT22;5313;48.834;9.228;2022-09-09T15:10:49;24.00;86.00
10530;DHT22;5313;48.834;9.228;2022-09-09T15:13:16;23.90;87.00
10530;DHT22;5313;48.834;9.228;2022-09-09T15:15:44;23.60;87.30
10530;DHT22;5313;48.834;9.228;2022-09-09T15:18:09;23.40;89.90
10530;DHT22;5313;48.834;9.228;2022-09-09T15:20:35;23.20;90.10
10530;DHT22;5313;48.834;9.228;2022-09-09T15:23:02;23.10;91.20
10530;DHT22;5313;48.834;9.228;2022-09-09T15:25:28;23.00;91.30
10530;DHT22;5313;48.834;9.228;2022-09-09T15:27:53;22.80;91.80
10530;DHT22;5313;48.834;9.228;2022-09-09T15:30:19;22.70;92.10
10530;DHT22;5313;48.834;9.228;2022-09-09T15:32:44;22.70;92.20
10530;DHT22;5313;48.834;9.228;2022-09-09T15:35:10;22.60;91.70
10530;DHT22;5313;48.834;9.228;2022-09-09T15:37:35;22.50;91.40
10530;DHT22;5313;48.834;9.228;2022-09-09T15:40:01;22.50;91.70
10530;DHT22;5313;48.834;9.228;2022-09-09T15:42:27;22.50;92.50
10530;DHT22;5313;48.834;9.228;2022-09-09T15:44:52;22.50;92.30
10530;DHT22;5313;48.834;9.228;2022-09-09T15:47:17;22.50;92.80
10530;DHT22;5313;48.834;9.228;2022-09-09T15:49:43;22.50;93.10
10530;DHT22;5313;48.834;9.228;2022-09-09T15:52:10;22.50;93.70
10530;DHT22;5313;48.834;9.228;2022-09-09T15:54:37;22.40;94.20
10530;DHT22;5313;48.834;9.228;2022-09-09T15:57:07;22.30;94.30
10530;DHT22;5313;48.834;9.228;2022-09-09T15:59:36;22.20;94.80
10530;DHT22;5313;48.834;9.228;2022-09-09T16:02:02;22.20;95.00
10530;DHT22;5313;48.834;9.228;2022-09-09T16:04:28;22.10;95.70
10530;DHT22;5313;48.834;9.228;2022-09-09T16:07:00;22.10;95.60
10530;DHT22;5313;48.834;9.228;2022-09-09T16:09:27;22.10;96.30
10530;DHT22;5313;48.834;9.228;2022-09-09T16:11:56;22.00;97.30
10530;DHT22;5313;48.834;9.228;2022-09-09T16:14:21;22.10;98.30
10530;DHT22;5313;48.834;9.228;2022-09-09T16:16:47;22.10;96.90
10530;DHT22;5313;48.834;9.228;2022-09-09T16:19:13;22.10;98.50
10530;DHT22;5313;48.834;9.228;2022-09-09T16:21:44;22.10;97.50
10530;DHT22;5313;48.834;9.228;2022-09-09T16:24:12;22.10;97.70
10530;DHT22;5313;48.834;9.228;2022-09-09T16:26:40;22.00;98.20
10530;DHT22;5313;48.834;9.228;2022-09-09T16:29:06;21.90;98.40
10530;DHT22;5313;48.834;9.228;2022-09-09T16:31:32;21.80;98.60
10530;DHT22;5313;48.834;9.228;2022-09-09T16:33:57;21.50;97.70
10530;DHT22;5313;48.834;9.228;2022-09-09T16:36:25;21.10;98.30
10530;DHT22;5313;48.834;9.228;2022-09-09T16:38:55;20.70;98.70
10530;DHT22;5313;48.834;9.228;2022-09-09T16:41:22;20.30;99.40
10530;DHT22;5313;48.834;9.228;2022-09-09T16:44:01;19.90;99.90
10530;DHT22;5313;48.834;9.228;2022-09-09T16:46:32;19.80;99.90
10530;DHT22;5313;48.834;9.228;2022-09-09T16:49:00;19.60;99.90
10530;DHT22;5313;48.834;9.228;2022-09-09T16:51:30;19.50;99.90
10530;DHT22;5313;48.834;9.228;2022-09-09T16:53:59;19.50;99.90
10530;DHT22;5313;48.834;9.228;2022-09-09T16:56:28;19.50;99.90
10530;DHT22;5313;48.834;9.228;2022-09-09T16:58:59;19.60;99.90
10530;DHT22;5313;48.834;9.228;2022-09-09T17:01:27;19.50;99.90
10530;DHT22;5313;48.834;9.228;2022-09-09T17:03:57;19.40;99.90
10530;DHT22;5313;48.834;9.228;2022-09-09T17:06:23;19.10;99.90
10530;DHT22;5313;48.834;9.228;2022-09-09T17:08:54;18.60;99.90
10530;DHT22;5313;48.834;9.228;2022-09-09T17:11:20;18.20;99.90
10530;DHT22;5313;48.834;9.228;2022-09-09T17:13:46;18.10;99.90
10530;DHT22;5313;48.834;9.228;2022-09-09T17:16:15;18.20;99.90
10530;DHT22;5313;48.834;9.228;2022-09-09T17:18:41;18.30;99.90
10530;DHT22;5313;48.834;9.228;2022-09-09T17:21:13;18.60;99.90
10530;DHT22;5313;48.834;9.228;2022-09-09T17:23:40;18.80;99.90
10530;DHT22;5313;48.834;9.228;2022-09-09T17:26:08;18.60;99.90
10530;DHT22;5313;48.834;9.228;2022-09-09T17:28:36;18.50;99.90
10530;DHT22;5313;48.834;9.228;2022-09-09T17:31:02;18.90;99.90
10530;DHT22;5313;48.834;9.228;2022-09-09T17:33:31;18.70;99.90
10530;DHT22;5313;48.834;9.228;2022-09-09T17:36:04;18.70;99.90
10530;DHT22;5313;48.834;9.228;2022-09-09T17:38:31;18.70;99.90
10530;DHT22;5313;48.834;9.228;2022-09-09T17:41:12;18.60;99.90
10530;DHT22;5313;48.834;9.228;2022-09-09T17:43:38;18.90;99.90
10530;DHT22;5313;48.834;9.228;2022-09-09T17:48:41;18.90;99.90
10530;DHT22;5313;48.834;9.228;2022-09-09T17:51:12;18.90;99.90
10530;DHT22;5313;48.834;9.228;2022-09-09T17:53:43;18.80;99.90
10530;DHT22;5313;48.834;9.228;2022-09-09T17:56:11;18.90;99.90
10530;DHT22;5313;48.834;9.228;2022-09-09T17:58:37;18.80;99.90
10530;DHT22;5313;48.834;9.228;2022-09-09T18:01:09;18.70;99.90
10530;DHT22;5313;48.834;9.228;2022-09-09T18:03:37;18.70;99.90
10530;DHT22;5313;48.834;9.228;2022-09-09T18:06:09;18.90;99.90
10530;DHT22;5313;48.834;9.228;2022-09-09T18:08:35;18.80;99.90